Terminal Aerodrome Forecast
Issued by NWS

Home | Current Version | Previous Version | Text Only | Print | Product List | Glossary On
Versions: 1 2 3 4 5 6 7 8 9 10 11 12 13 14 15 16 17 18 19 20 21 22 23 24 25 26 27 28 29 30 31 32 33
305
FTUS41 KCAR 100212 AAB
TAFFVE
TAF AMD
KFVE 100212Z 1002/1024 03006KT 2SM -SN OVC020
      TEMPO 1002/1004 3SM -SN
     FM100400 02006KT 4SM BR OVC025
     FM100900 32004KT 4SM BR OVC030
     FM101500 24004KT P6SM OVC030=

USA.gov is the U.S. government's official web portal to all federal, state and local government web resources and services.